Terminal Aerodrome Forecast
Issued by NWS

Home | Current Version | Previous Version | Text Only | Print | Product List | Glossary On
Versions: 1 2 3 4 5 6 7 8 9 10 11 12 13 14
000
FTUS42 KMLB 221739
TAFLEE
TAF
KLEE 221739Z 2218/2318 14010KT P6SM BKN035 BKN100
     FM230000 11006KT P6SM SCT030 OVC100
     FM230600 15004KT P6SM VCSH SCT020 BKN040 OVC080
      TEMPO 2308/2312 3SM SHRA BKN010 OVC020
     FM231200 18004KT P6SM VCSH BKN020 OVC040
      TEMPO 2312/2316 5SM -RA BR BKN012 OVC025
     FM231700 22008KT P6SM SCT035 OVC060=

USA.gov is the U.S. government's official web portal to all federal, state and local government web resources and services.